createdAt,value
2018-03-28T00:00:17.480Z,7.85
2018-03-28T00:01:17.503Z,7.92
2018-03-28T00:02:17.520Z,7.88
2018-03-28T00:03:17.541Z,7.95
2018-03-28T00:04:17.563Z,7.99
2018-03-28T00:05:17.583Z,7.96
2018-03-28T00:06:17.611Z,7.94
2018-03-28T00:07:17.629Z,7.88
2018-03-28T00:08:17.644Z,8.00
2018-03-28T00:09:17.658Z,7.99
2018-03-28T00:10:17.681Z,7.99
2018-03-28T00:11:17.700Z,7.99
2018-03-28T00:12:17.724Z,7.94
2018-03-28T00:13:17.739Z,7.84
2018-03-28T00:14:17.770Z,8.00
2018-03-28T00:15:17.780Z,7.99
2018-03-28T00:16:17.798Z,7.99
2018-03-28T00:17:18.068Z,7.86
2018-03-28T00:18:17.842Z,7.81
2018-03-28T00:19:17.856Z,7.85
2018-03-28T00:20:17.881Z,7.71
2018-03-28T00:21:17.902Z,7.74
2018-03-28T00:22:17.926Z,7.84
2018-03-28T00:23:17.942Z,7.76
2018-03-28T00:24:17.958Z,7.71
2018-03-28T00:25:17.978Z,7.76
2018-03-28T00:26:18.003Z,7.70
2018-03-28T00:27:18.022Z,7.85
2018-03-28T00:28:18.038Z,7.88
2018-03-28T00:29:18.059Z,7.85
2018-03-28T00:30:18.078Z,7.74
2018-03-28T00:31:18.104Z,7.88
2018-03-28T00:32:18.119Z,7.85
2018-03-28T00:33:18.139Z,7.81
2018-03-28T00:34:18.161Z,7.79
2018-03-28T00:35:18.178Z,7.69
2018-03-28T00:36:18.201Z,7.66
2018-03-28T00:37:18.222Z,7.63
2018-03-28T00:38:18.238Z,7.60
2018-03-28T00:39:18.253Z,7.51
2018-03-28T00:40:18.280Z,7.57
2018-03-28T00:41:18.302Z,7.66
2018-03-28T00:42:18.315Z,7.62
2018-03-28T00:43:18.334Z,7.66
2018-03-28T00:44:18.359Z,7.60
2018-03-28T00:45:18.392Z,7.62
2018-03-28T00:46:18.393Z,7.60
2018-03-28T00:47:18.412Z,7.73
2018-03-28T00:48:18.434Z,7.67
2018-03-28T00:49:18.456Z,7.66
2018-03-28T00:50:18.479Z,7.67
2018-03-28T00:51:18.492Z,7.70
2018-03-28T00:52:18.511Z,7.69
2018-03-28T00:53:18.533Z,7.66
2018-03-28T00:54:18.551Z,7.63
2018-03-28T00:55:18.570Z,7.67
2018-03-28T00:56:18.601Z,7.57
2018-03-28T00:57:18.613Z,7.67
2018-03-28T00:58:18.633Z,7.54
2018-03-28T00:59:18.656Z,7.58
2018-03-28T01:00:18.675Z,7.70
2018-03-28T01:01:18.694Z,7.60
2018-03-28T01:02:18.963Z,7.60
2018-03-28T01:03:18.736Z,7.67
2018-03-28T01:04:18.749Z,7.60
2018-03-28T01:05:18.770Z,7.58
2018-03-28T01:06:18.791Z,7.60
2018-03-28T01:07:18.815Z,7.67
2018-03-28T01:08:18.833Z,7.63
2018-03-28T01:09:18.860Z,7.62
2018-03-28T01:10:18.872Z,7.55
2018-03-28T01:11:18.894Z,7.58
2018-03-28T01:12:18.912Z,7.52
2018-03-28T01:13:18.933Z,7.51
2018-03-28T01:14:18.948Z,7.60
2018-03-28T01:15:18.971Z,7.50
2018-03-28T01:16:18.989Z,7.51
2018-03-28T01:17:19.012Z,7.55
2018-03-28T01:18:19.025Z,7.62
2018-03-28T01:19:19.051Z,7.54
2018-03-28T01:20:19.070Z,7.50
2018-03-28T01:21:19.086Z,7.54
2018-03-28T01:22:19.105Z,7.51
2018-03-28T01:23:19.125Z,7.45
2018-03-28T01:24:19.154Z,7.48
2018-03-28T01:25:19.165Z,7.48
2018-03-28T01:26:19.190Z,7.44
2018-03-28T01:27:19.205Z,7.39
2018-03-28T01:28:19.225Z,7.48
2018-03-28T01:29:19.244Z,7.47
2018-03-28T01:30:19.273Z,7.41
2018-03-28T01:31:19.284Z,7.48
2018-03-28T01:32:19.553Z,7.54
2018-03-28T01:33:19.319Z,7.58
2018-03-28T01:34:19.343Z,7.51
2018-03-28T01:35:19.359Z,7.58
2018-03-28T01:36:19.383Z,7.44
2018-03-28T01:37:19.402Z,7.48
2018-03-28T01:38:19.425Z,7.52
2018-03-28T01:39:19.440Z,7.51
2018-03-28T01:40:19.459Z,7.45
2018-03-28T01:41:19.478Z,7.51
2018-03-28T01:42:19.499Z,7.50
2018-03-28T01:43:19.770Z,7.44
2018-03-28T01:44:19.543Z,7.55
2018-03-28T01:45:19.554Z,7.47
2018-03-28T01:46:19.579Z,7.48
2018-03-28T01:47:19.599Z,7.45
2018-03-28T01:48:19.617Z,7.39
2018-03-28T01:49:19.637Z,7.48
2018-03-28T01:50:19.663Z,7.45
2018-03-28T01:51:19.674Z,7.45
2018-03-28T01:52:19.692Z,7.45
2018-03-28T01:53:19.712Z,7.55
2018-03-28T01:54:19.987Z,7.50
2018-03-28T01:55:19.764Z,7.52
2018-03-28T01:56:19.792Z,7.57
2018-03-28T01:57:19.797Z,7.50
2018-03-28T01:58:19.809Z,7.48
2018-03-28T01:59:19.841Z,7.44
2018-03-28T02:00:19.862Z,7.55
2018-03-28T02:01:19.869Z,7.51
2018-03-28T02:02:19.887Z,7.37
2018-03-28T02:03:19.907Z,7.48
2018-03-28T02:04:19.927Z,7.52
2018-03-28T02:05:19.952Z,7.52
2018-03-28T02:06:19.967Z,7.42
2018-03-28T02:07:19.991Z,7.54
2018-03-28T02:08:20.011Z,7.50
2018-03-28T02:09:20.028Z,7.41
2018-03-28T02:10:20.047Z,7.58
2018-03-28T02:11:20.080Z,7.54
2018-03-28T02:12:20.086Z,7.52
2018-03-28T02:13:20.112Z,7.62
2018-03-28T02:14:20.127Z,7.63
2018-03-28T02:15:20.150Z,7.67
2018-03-28T02:16:20.166Z,7.63
2018-03-28T02:17:20.187Z,7.67
2018-03-28T02:18:20.206Z,7.58
2018-03-28T02:19:20.230Z,7.63
2018-03-28T02:20:20.248Z,7.54
2018-03-28T02:21:20.266Z,7.55
2018-03-28T02:22:20.284Z,7.51
2018-03-28T02:23:20.306Z,7.54
2018-03-28T02:24:20.330Z,7.60
2018-03-28T02:25:20.345Z,7.60
2018-03-28T02:26:20.366Z,7.60
2018-03-28T02:27:20.381Z,7.63
2018-03-28T02:28:20.400Z,7.51
2018-03-28T02:29:20.422Z,7.52
2018-03-28T02:30:20.442Z,7.57
2018-03-28T02:31:20.464Z,7.51
2018-03-28T02:32:20.485Z,7.48
2018-03-28T02:33:20.503Z,7.42
2018-03-28T02:34:20.524Z,7.39
2018-03-28T02:35:20.542Z,7.50
2018-03-28T02:36:20.564Z,7.37
2018-03-28T02:37:20.584Z,7.37
2018-03-28T02:38:20.602Z,7.47
2018-03-28T02:39:20.622Z,7.41
2018-03-28T02:40:20.641Z,7.45
2018-03-28T02:41:20.664Z,7.51
2018-03-28T02:42:20.685Z,7.39
2018-03-28T02:43:20.699Z,7.32
2018-03-28T02:44:20.715Z,7.30
2018-03-28T02:45:20.739Z,7.36
2018-03-28T02:46:20.768Z,7.29
2018-03-28T02:47:20.781Z,7.36
2018-03-28T02:48:20.796Z,7.24
2018-03-28T02:49:20.819Z,7.30
2018-03-28T02:50:20.836Z,7.12
2018-03-28T02:51:20.859Z,7.23
2018-03-28T02:52:20.876Z,7.19
2018-03-28T02:53:21.146Z,7.19
2018-03-28T02:54:20.914Z,7.19
2018-03-28T02:55:20.933Z,7.14
2018-03-28T02:56:20.954Z,7.14
2018-03-28T02:57:20.974Z,7.33
2018-03-28T02:58:20.993Z,7.32
2018-03-28T02:59:21.015Z,7.44
2018-03-28T03:00:21.034Z,7.51
2018-03-28T03:01:21.050Z,7.44
2018-03-28T03:02:21.079Z,7.45
2018-03-28T03:03:21.348Z,7.42
2018-03-28T03:04:21.115Z,7.51
2018-03-28T03:05:21.138Z,7.48
2018-03-28T03:06:21.152Z,7.42
2018-03-28T03:07:21.171Z,7.30
2018-03-28T03:08:21.190Z,7.26
2018-03-28T03:09:21.207Z,7.29
2018-03-28T03:10:21.229Z,7.23
2018-03-28T03:11:21.248Z,7.30
2018-03-28T03:12:21.269Z,7.41
2018-03-28T03:13:21.327Z,7.32
2018-03-28T03:14:21.314Z,7.33
2018-03-28T03:15:21.328Z,7.41
2018-03-28T03:16:21.342Z,7.34
2018-03-28T03:17:21.364Z,7.34
2018-03-28T03:18:21.438Z,7.26
2018-03-28T03:19:21.405Z,7.32
2018-03-28T03:20:21.422Z,7.30
2018-03-28T03:21:21.443Z,7.36
2018-03-28T03:22:21.467Z,7.50
2018-03-28T03:23:21.487Z,7.42
2018-03-28T03:24:21.503Z,7.51
2018-03-28T03:25:21.518Z,7.41
2018-03-28T03:26:21.548Z,7.42
2018-03-28T03:27:21.561Z,7.41
2018-03-28T03:28:21.587Z,7.51
2018-03-28T03:29:21.597Z,7.50
2018-03-28T03:30:21.618Z,7.54
2018-03-28T03:31:21.648Z,7.54
2018-03-28T03:32:21.658Z,7.45
2018-03-28T03:33:21.681Z,7.50
2018-03-28T03:34:21.695Z,7.33
2018-03-28T03:35:21.713Z,7.33
2018-03-28T03:36:21.741Z,7.41
2018-03-28T03:37:21.765Z,7.34
2018-03-28T03:38:21.776Z,7.51
2018-03-28T03:39:21.795Z,7.45
2018-03-28T03:40:21.811Z,7.41
2018-03-28T03:41:21.835Z,7.41
2018-03-28T03:42:21.852Z,7.39
2018-03-28T03:43:21.871Z,7.50
2018-03-28T03:44:21.893Z,7.44
2018-03-28T03:45:21.911Z,7.39
2018-03-28T03:46:21.934Z,7.34
2018-03-28T03:47:21.951Z,7.29
2018-03-28T03:48:21.972Z,7.33
2018-03-28T03:49:21.991Z,7.42
2018-03-28T03:50:22.015Z,7.34
2018-03-28T03:51:22.031Z,7.19
2018-03-28T03:52:22.049Z,7.39
2018-03-28T03:53:22.071Z,7.29
2018-03-28T03:54:22.086Z,7.16
2018-03-28T03:55:22.110Z,7.16
2018-03-28T03:56:22.129Z,7.24
2018-03-28T03:57:22.152Z,7.14
2018-03-28T03:58:22.160Z,7.18
2018-03-28T03:59:22.185Z,7.00
2018-03-28T04:00:22.204Z,7.15
2018-03-28T04:01:22.231Z,7.16
2018-03-28T04:02:22.242Z,7.11
2018-03-28T04:03:22.261Z,7.14
2018-03-28T04:04:22.281Z,7.14
2018-03-28T04:05:22.551Z,7.14
2018-03-28T04:06:22.320Z,7.00
2018-03-28T04:07:22.342Z,7.05
2018-03-28T04:08:22.361Z,7.00
2018-03-28T04:09:22.380Z,6.96
2018-03-28T04:10:22.396Z,6.81
2018-03-28T04:11:22.415Z,6.71
2018-03-28T04:12:22.436Z,6.72
2018-03-28T04:13:22.456Z,6.69
2018-03-28T04:14:22.477Z,6.69
2018-03-28T04:15:22.495Z,6.69
2018-03-28T04:16:22.517Z,6.65
2018-03-28T04:17:22.537Z,6.68
2018-03-28T04:18:22.586Z,6.71
2018-03-28T04:19:22.570Z,6.63
2018-03-28T04:20:22.590Z,6.60
2018-03-28T04:21:22.614Z,6.58
2018-03-28T04:22:22.625Z,6.45
2018-03-28T04:23:22.646Z,6.46
2018-03-28T04:24:22.662Z,6.54
2018-03-28T04:25:22.679Z,6.60
2018-03-28T04:26:22.704Z,6.53
2018-03-28T04:27:22.719Z,6.58
2018-03-28T04:28:22.739Z,6.54
2018-03-28T04:29:22.759Z,6.51
2018-03-28T04:30:22.774Z,6.57
2018-03-28T04:31:22.794Z,6.57
2018-03-28T04:32:23.063Z,6.43
2018-03-28T04:33:22.839Z,6.46
2018-03-28T04:34:22.854Z,6.28
2018-03-28T04:35:22.873Z,6.33
2018-03-28T04:36:22.889Z,6.16
2018-03-28T04:37:22.910Z,6.16
2018-03-28T04:38:22.925Z,6.13
2018-03-28T04:39:22.951Z,6.11
2018-03-28T04:40:22.963Z,6.08
2018-03-28T04:41:22.993Z,6.06
2018-03-28T04:42:23.254Z,6.13
2018-03-28T04:43:23.019Z,6.19
2018-03-28T04:44:23.046Z,6.17
2018-03-28T04:45:23.053Z,6.36
2018-03-28T04:46:23.077Z,6.30
2018-03-28T04:47:23.109Z,6.38
2018-03-28T04:48:23.112Z,6.30
2018-03-28T04:49:23.128Z,6.36
2018-03-28T04:50:23.158Z,6.32
2018-03-28T04:51:23.172Z,6.33
2018-03-28T04:52:23.184Z,6.27
2018-03-28T04:53:23.206Z,6.13
2018-03-28T04:54:23.227Z,6.16
2018-03-28T04:55:23.238Z,6.20
2018-03-28T04:56:23.263Z,6.17
2018-03-28T04:57:23.527Z,6.20
2018-03-28T04:58:23.291Z,6.17
2018-03-28T04:59:23.312Z,6.10
2018-03-28T05:00:23.335Z,6.19
2018-03-28T05:01:23.349Z,6.11
2018-03-28T05:02:23.386Z,6.03
2018-03-28T05:03:23.381Z,6.06
2018-03-28T05:04:23.403Z,6.08
2018-03-28T05:05:23.425Z,6.03
2018-03-28T05:06:23.447Z,6.01
2018-03-28T05:07:23.460Z,5.98
2018-03-28T05:08:23.493Z,5.98
2018-03-28T05:09:23.491Z,5.96
2018-03-28T05:10:23.511Z,5.80
2018-03-28T05:11:23.535Z,5.65
2018-03-28T05:12:23.547Z,5.88
2018-03-28T05:13:23.570Z,5.87
2018-03-28T05:14:23.587Z,5.81
2018-03-28T05:15:23.601Z,5.87
2018-03-28T05:16:23.618Z,5.88
2018-03-28T05:17:23.637Z,5.93
2018-03-28T05:18:23.656Z,5.87
2018-03-28T05:19:23.677Z,5.65
2018-03-28T05:20:23.691Z,5.66
2018-03-28T05:21:23.710Z,5.75
2018-03-28T05:22:23.727Z,5.80
2018-03-28T05:23:23.749Z,5.80
2018-03-28T05:24:23.767Z,5.87
2018-03-28T05:25:23.780Z,5.98
2018-03-28T05:26:23.797Z,5.84
2018-03-28T05:27:23.818Z,5.85
2018-03-28T05:28:23.832Z,5.88
2018-03-28T05:29:23.860Z,5.87
2018-03-28T05:30:23.871Z,5.92
2018-03-28T05:31:23.887Z,5.70
2018-03-28T05:32:23.918Z,5.78
2018-03-28T05:33:23.926Z,5.85
2018-03-28T05:34:23.940Z,5.87
2018-03-28T05:35:23.959Z,5.81
2018-03-28T05:36:23.975Z,5.87
2018-03-28T05:37:23.996Z,5.95
2018-03-28T05:38:24.012Z,5.93
2018-03-28T05:39:24.034Z,5.98
2018-03-28T05:40:24.050Z,5.93
2018-03-28T05:41:24.066Z,5.88
2018-03-28T05:42:24.087Z,5.65
2018-03-28T05:43:24.109Z,5.66
2018-03-28T05:44:24.124Z,5.67
2018-03-28T05:45:24.140Z,5.59
2018-03-28T05:46:24.156Z,5.51
2018-03-28T05:47:24.187Z,5.51
2018-03-28T05:48:24.199Z,5.65
2018-03-28T05:49:24.213Z,5.75
2018-03-28T05:50:24.258Z,5.69
2018-03-28T05:51:24.244Z,5.70
2018-03-28T05:52:24.264Z,5.69
2018-03-28T05:53:24.532Z,5.66
2018-03-28T05:54:24.300Z,5.62
2018-03-28T05:55:24.315Z,5.52
2018-03-28T05:56:24.334Z,5.51
2018-03-28T05:57:24.348Z,5.41
2018-03-28T05:58:24.374Z,5.56
2018-03-28T05:59:24.391Z,5.56
2018-03-28T06:00:24.403Z,5.51
2018-03-28T06:01:24.423Z,5.42
2018-03-28T06:02:24.441Z,5.44
2018-03-28T06:03:24.458Z,5.51
2018-03-28T06:04:24.474Z,5.55
2018-03-28T06:05:24.499Z,5.63
2018-03-28T06:06:24.508Z,5.56
2018-03-28T06:07:24.542Z,5.75
2018-03-28T06:08:24.547Z,5.69
2018-03-28T06:09:24.562Z,5.70
2018-03-28T06:10:24.587Z,5.75
2018-03-28T06:11:24.599Z,5.78
2018-03-28T06:12:24.614Z,5.74
2018-03-28T06:13:24.636Z,5.69
2018-03-28T06:14:24.651Z,5.65
2018-03-28T06:15:24.667Z,5.63
2018-03-28T06:16:24.692Z,5.56
2018-03-28T06:17:24.707Z,5.58
2018-03-28T06:18:24.749Z,5.56
2018-03-28T06:19:24.739Z,5.51
2018-03-28T06:20:24.757Z,5.63
2018-03-28T06:21:24.773Z,5.58
2018-03-28T06:22:24.796Z,5.60
2018-03-28T06:23:24.813Z,5.70
2018-03-28T06:24:24.827Z,5.74
2018-03-28T06:25:24.844Z,5.67
2018-03-28T06:26:24.862Z,5.66
2018-03-28T06:27:24.882Z,5.65
2018-03-28T06:28:24.902Z,5.66
2018-03-28T06:29:24.920Z,5.66
2018-03-28T06:30:24.935Z,5.62
2018-03-28T06:31:24.952Z,5.67
2018-03-28T06:32:24.972Z,5.73
2018-03-28T06:33:24.987Z,5.83
2018-03-28T06:34:25.006Z,5.69
2018-03-28T06:35:25.022Z,5.70
2018-03-28T06:36:25.038Z,5.80
2018-03-28T06:37:25.056Z,5.77
2018-03-28T06:38:25.080Z,5.80
2018-03-28T06:39:25.096Z,5.85
2018-03-28T06:40:25.114Z,5.67
2018-03-28T06:41:25.131Z,5.70
2018-03-28T06:42:25.147Z,5.60
2018-03-28T06:43:25.167Z,5.70
2018-03-28T06:44:25.184Z,5.63
2018-03-28T06:45:25.206Z,5.55
2018-03-28T06:46:25.222Z,5.56
2018-03-28T06:47:25.237Z,5.58
2018-03-28T06:48:25.255Z,5.62
2018-03-28T06:49:25.273Z,5.65
2018-03-28T06:50:25.294Z,5.56
2018-03-28T06:51:25.311Z,5.66
2018-03-28T06:52:25.329Z,5.67
2018-03-28T06:53:25.349Z,5.52
2018-03-28T06:54:25.360Z,5.60
2018-03-28T06:55:25.379Z,5.62
2018-03-28T06:56:25.396Z,5.65
2018-03-28T06:57:25.410Z,5.63
2018-03-28T06:58:25.435Z,5.56
2018-03-28T06:59:25.454Z,5.56
2018-03-28T07:00:25.473Z,5.67
2018-03-28T07:01:25.490Z,5.75
2018-03-28T07:02:25.503Z,5.67
2018-03-28T07:03:25.524Z,5.65
2018-03-28T07:04:25.546Z,5.52
2018-03-28T07:05:25.560Z,5.59
2018-03-28T07:06:25.579Z,5.69
2018-03-28T07:07:25.593Z,5.74
2018-03-28T07:08:25.605Z,5.73
2018-03-28T07:09:25.639Z,5.87
2018-03-28T07:10:25.646Z,5.85
2018-03-28T07:11:25.665Z,5.80
2018-03-28T07:12:25.680Z,5.74
2018-03-28T07:13:25.699Z,5.75
2018-03-28T07:14:25.747Z,5.70
2018-03-28T07:15:25.743Z,5.73
2018-03-28T07:16:25.753Z,5.69
2018-03-28T07:17:25.764Z,5.80
2018-03-28T07:18:26.042Z,5.70
2018-03-28T07:19:25.804Z,5.73
2018-03-28T07:20:25.826Z,5.83
2018-03-28T07:21:25.844Z,5.74
2018-03-28T07:22:25.863Z,5.67
2018-03-28T07:23:25.879Z,5.70
2018-03-28T07:24:25.893Z,5.75
2018-03-28T07:25:25.913Z,5.66
2018-03-28T07:26:25.929Z,5.77
2018-03-28T07:27:25.950Z,5.70
2018-03-28T07:28:26.217Z,5.70
2018-03-28T07:29:25.983Z,5.70
2018-03-28T07:30:26.003Z,5.83
2018-03-28T07:31:26.027Z,5.77
2018-03-28T07:32:26.040Z,5.80
2018-03-28T07:33:26.310Z,5.83
2018-03-28T07:34:26.079Z,5.80
2018-03-28T07:35:26.095Z,5.75
2018-03-28T07:36:26.111Z,5.73
2018-03-28T07:37:26.130Z,5.77
2018-03-28T07:38:26.150Z,5.75
2018-03-28T07:39:26.165Z,5.81
2018-03-28T07:40:26.204Z,5.77
2018-03-28T07:41:26.199Z,5.84
2018-03-28T07:42:26.219Z,5.87
2018-03-28T07:43:26.237Z,5.93
2018-03-28T07:44:26.264Z,5.85
2018-03-28T07:45:26.277Z,5.83
2018-03-28T07:46:26.288Z,5.99
2018-03-28T07:47:26.307Z,6.02
2018-03-28T07:48:26.324Z,6.02
2018-03-28T07:49:26.344Z,6.10
2018-03-28T07:50:26.372Z,5.98
2018-03-28T07:51:26.381Z,5.99
2018-03-28T07:52:26.397Z,6.05
2018-03-28T07:53:26.422Z,5.93
2018-03-28T07:54:26.444Z,6.08
2018-03-28T07:55:26.460Z,6.10
2018-03-28T07:56:26.467Z,6.05
2018-03-28T07:57:26.488Z,6.14
2018-03-28T07:58:26.510Z,6.14
2018-03-28T07:59:26.529Z,6.17
2018-03-28T08:00:26.543Z,6.16
2018-03-28T08:01:26.557Z,6.14
2018-03-28T08:02:26.634Z,6.06
2018-03-28T08:03:26.598Z,5.99
2018-03-28T08:04:26.625Z,6.02
2018-03-28T08:05:26.631Z,6.02
2018-03-28T08:06:26.647Z,5.98
2018-03-28T08:07:26.922Z,5.95
2018-03-28T08:08:26.685Z,5.95
2018-03-28T08:09:26.709Z,5.93
2018-03-28T08:10:26.726Z,5.96
2018-03-28T08:11:26.742Z,5.84
2018-03-28T08:12:26.761Z,5.90
2018-03-28T08:13:26.775Z,5.95
2018-03-28T08:14:26.796Z,6.02
2018-03-28T08:15:26.825Z,5.95
2018-03-28T08:16:26.835Z,6.06
2018-03-28T08:17:26.847Z,6.16
2018-03-28T08:18:26.868Z,6.11
2018-03-28T08:19:26.912Z,6.17
2018-03-28T08:20:26.910Z,6.19
2018-03-28T08:21:26.926Z,6.14
2018-03-28T08:22:26.944Z,6.24
2018-03-28T08:23:26.995Z,6.21
2018-03-28T08:24:26.975Z,6.21
2018-03-28T08:25:27.000Z,6.27
2018-03-28T08:26:27.021Z,6.35
2018-03-28T08:27:27.031Z,6.39
2018-03-28T08:28:27.051Z,6.36
2018-03-28T08:29:27.070Z,6.33
2018-03-28T08:30:27.086Z,6.43
2018-03-28T08:31:27.108Z,6.35
2018-03-28T08:32:27.127Z,6.27
2018-03-28T08:33:27.149Z,6.25
2018-03-28T08:34:27.165Z,6.28
2018-03-28T08:35:27.184Z,6.25
2018-03-28T08:36:27.201Z,6.28
2018-03-28T08:37:27.220Z,6.32
2018-03-28T08:38:27.238Z,6.33
2018-03-28T08:39:27.258Z,6.30
2018-03-28T08:40:27.276Z,6.35
2018-03-28T08:41:27.295Z,6.39
2018-03-28T08:42:27.315Z,6.30
2018-03-28T08:43:27.330Z,6.38
2018-03-28T08:44:27.348Z,6.33
2018-03-28T08:45:27.366Z,6.45
2018-03-28T08:46:27.389Z,6.46
2018-03-28T08:47:27.405Z,6.42
2018-03-28T08:48:27.426Z,6.43
2018-03-28T08:49:27.443Z,6.45
2018-03-28T08:50:27.465Z,6.43
2018-03-28T08:51:27.479Z,6.48
2018-03-28T08:52:27.498Z,6.54
2018-03-28T08:53:27.519Z,6.48
2018-03-28T08:54:27.534Z,6.58
2018-03-28T08:55:27.559Z,6.63
2018-03-28T08:56:27.576Z,6.51
2018-03-28T08:57:27.588Z,6.54
2018-03-28T08:58:27.614Z,6.53
2018-03-28T08:59:27.631Z,6.63
2018-03-28T09:00:27.655Z,6.69
2018-03-28T09:01:27.670Z,6.79
2018-03-28T09:02:27.690Z,6.81
2018-03-28T09:03:27.708Z,6.82
2018-03-28T09:04:27.726Z,6.83
2018-03-28T09:05:27.747Z,6.86
2018-03-28T09:06:27.761Z,6.82
2018-03-28T09:07:27.792Z,6.89
2018-03-28T09:08:27.798Z,6.68
2018-03-28T09:09:27.813Z,6.51
2018-03-28T09:10:27.838Z,6.63
2018-03-28T09:11:27.871Z,6.65
2018-03-28T09:12:27.880Z,6.69
2018-03-28T09:13:27.899Z,6.64
2018-03-28T09:14:27.917Z,6.46
2018-03-28T09:15:27.932Z,6.43
2018-03-28T09:16:27.958Z,6.51
2018-03-28T09:17:27.977Z,6.48
2018-03-28T09:18:27.993Z,6.57
2018-03-28T09:19:28.009Z,6.43
2018-03-28T09:20:28.028Z,6.42
2018-03-28T09:21:28.057Z,6.53
2018-03-28T09:22:28.063Z,6.55
2018-03-28T09:23:28.080Z,6.54
2018-03-28T09:24:28.106Z,6.64
2018-03-28T09:25:28.122Z,6.71
2018-03-28T09:26:28.137Z,6.69
2018-03-28T09:27:28.158Z,6.65
2018-03-28T09:28:28.182Z,6.72
2018-03-28T09:29:28.196Z,6.82
2018-03-28T09:30:28.224Z,6.65
2018-03-28T09:31:28.239Z,6.64
2018-03-28T09:32:28.251Z,6.63
2018-03-28T09:33:28.278Z,6.50
2018-03-28T09:34:28.292Z,6.55
2018-03-28T09:35:28.315Z,6.58
2018-03-28T09:36:28.333Z,6.64
2018-03-28T09:37:28.353Z,6.76
2018-03-28T09:38:28.370Z,6.69
2018-03-28T09:39:28.387Z,6.64
2018-03-28T09:40:28.403Z,6.64
2018-03-28T09:41:28.425Z,6.63
2018-03-28T09:42:28.443Z,6.69
2018-03-28T09:43:28.468Z,6.65
2018-03-28T09:44:28.484Z,6.69
2018-03-28T09:45:28.513Z,6.71
2018-03-28T09:46:28.521Z,6.82
2018-03-28T09:47:28.544Z,6.91
2018-03-28T09:48:28.566Z,6.93
2018-03-28T09:49:28.582Z,6.87
2018-03-28T09:50:28.597Z,6.79
2018-03-28T09:51:28.619Z,6.86
2018-03-28T09:52:28.633Z,6.71
2018-03-28T09:53:28.654Z,6.71
2018-03-28T09:54:28.672Z,6.64
2018-03-28T09:55:28.691Z,6.71
2018-03-28T09:56:28.715Z,6.82
2018-03-28T09:57:28.731Z,6.73
2018-03-28T09:58:28.756Z,6.81
2018-03-28T09:59:28.773Z,6.79
2018-03-28T10:00:28.790Z,6.83
2018-03-28T10:01:28.806Z,6.81
2018-03-28T10:02:28.832Z,6.90
2018-03-28T10:03:28.848Z,6.87
2018-03-28T10:04:28.872Z,6.83
2018-03-28T10:05:28.882Z,6.87
2018-03-28T10:06:28.904Z,6.90
2018-03-28T10:07:28.924Z,6.89
2018-03-28T10:08:28.949Z,6.72
2018-03-28T10:09:28.960Z,6.79
2018-03-28T10:10:28.984Z,6.71
2018-03-28T10:11:28.999Z,6.65
2018-03-28T10:12:29.024Z,6.64
2018-03-28T10:13:29.040Z,6.61
2018-03-28T10:14:29.070Z,6.48
2018-03-28T10:15:29.077Z,6.68
2018-03-28T10:16:29.097Z,6.63
2018-03-28T10:17:29.136Z,6.53
2018-03-28T10:18:29.135Z,6.65
2018-03-28T10:19:29.153Z,6.65
2018-03-28T10:20:29.175Z,6.76
2018-03-28T10:21:29.193Z,6.78
2018-03-28T10:22:29.225Z,6.71
2018-03-28T10:23:29.234Z,6.72
2018-03-28T10:24:29.253Z,6.72
2018-03-28T10:25:29.272Z,6.64
2018-03-28T10:26:29.292Z,6.55
2018-03-28T10:27:29.311Z,6.61
2018-03-28T10:28:29.327Z,6.68
2018-03-28T10:29:29.348Z,6.72
2018-03-28T10:30:29.367Z,6.78
2018-03-28T10:31:29.388Z,6.83
2018-03-28T10:32:29.404Z,6.83
2018-03-28T10:33:29.430Z,6.82
2018-03-28T10:34:29.444Z,6.65
2018-03-28T10:35:29.458Z,6.72
2018-03-28T10:36:29.478Z,6.54
2018-03-28T10:37:29.501Z,6.65
2018-03-28T10:38:29.523Z,6.54
2018-03-28T10:39:29.539Z,6.54
2018-03-28T10:40:29.609Z,6.50
2018-03-28T10:41:29.578Z,6.68
2018-03-28T10:42:29.594Z,6.65
2018-03-28T10:43:29.623Z,6.68
2018-03-28T10:44:29.636Z,6.78
2018-03-28T10:45:29.653Z,6.73
2018-03-28T10:46:29.674Z,6.68
2018-03-28T10:47:29.693Z,6.73
2018-03-28T10:48:29.720Z,6.68
2018-03-28T10:49:29.731Z,6.64
2018-03-28T10:50:29.747Z,6.69
2018-03-28T10:51:29.771Z,6.87
2018-03-28T10:52:29.809Z,6.94
2018-03-28T10:53:29.810Z,6.93
2018-03-28T10:54:29.828Z,7.07
2018-03-28T10:55:29.851Z,7.04
2018-03-28T10:56:29.867Z,7.14
2018-03-28T10:57:29.884Z,7.14
2018-03-28T10:58:29.906Z,7.14
2018-03-28T10:59:29.926Z,7.29
2018-03-28T11:00:29.941Z,7.24
2018-03-28T11:01:29.964Z,7.19
2018-03-28T11:02:29.981Z,7.16
2018-03-28T11:03:30.007Z,7.12
2018-03-28T11:04:30.043Z,7.19
2018-03-28T11:05:30.040Z,7.14
2018-03-28T11:06:30.058Z,7.09
2018-03-28T11:07:30.076Z,7.01
2018-03-28T11:08:30.099Z,7.00
2018-03-28T11:09:30.117Z,6.99
2018-03-28T11:10:30.136Z,6.87
2018-03-28T11:11:30.154Z,7.05
2018-03-28T11:12:30.181Z,7.14
2018-03-28T11:13:30.197Z,7.01
2018-03-28T11:14:30.216Z,7.05
2018-03-28T11:15:30.241Z,6.89
2018-03-28T11:16:30.256Z,6.93
2018-03-28T11:17:30.276Z,6.87
2018-03-28T11:18:30.293Z,6.82
2018-03-28T11:19:30.317Z,6.82
2018-03-28T11:20:30.353Z,6.86
2018-03-28T11:21:30.355Z,6.86
2018-03-28T11:22:30.370Z,6.89
2018-03-28T11:23:30.402Z,6.87
2018-03-28T11:24:30.438Z,6.90
2018-03-28T11:25:30.431Z,6.82
2018-03-28T11:26:30.454Z,6.93
2018-03-28T11:27:30.477Z,6.91
2018-03-28T11:28:30.491Z,6.89
2018-03-28T11:29:30.509Z,6.79
2018-03-28T11:30:30.530Z,6.75
2018-03-28T11:31:30.550Z,6.86
2018-03-28T11:32:30.566Z,6.73
2018-03-28T11:33:30.584Z,6.64
2018-03-28T11:34:30.605Z,6.63
2018-03-28T11:35:30.632Z,6.61
2018-03-28T11:36:30.648Z,6.73
2018-03-28T11:37:30.668Z,6.64
2018-03-28T11:38:30.688Z,6.72
2018-03-28T11:39:30.705Z,6.78
2018-03-28T11:40:30.732Z,6.71
2018-03-28T11:41:30.745Z,6.69
2018-03-28T11:42:30.761Z,6.89
2018-03-28T11:43:30.788Z,6.78
2018-03-28T11:44:30.804Z,6.82
2018-03-28T11:45:30.823Z,6.69
2018-03-28T11:46:30.845Z,6.75
2018-03-28T11:47:30.864Z,6.63
2018-03-28T11:48:30.884Z,6.78
2018-03-28T11:49:30.905Z,6.86
2018-03-28T11:50:30.932Z,6.72
2018-03-28T11:51:30.942Z,6.82
2018-03-28T11:52:30.961Z,6.78
2018-03-28T11:53:30.980Z,6.79
2018-03-28T11:54:30.998Z,6.71
2018-03-28T11:55:31.020Z,6.60
2018-03-28T11:56:31.045Z,6.61
2018-03-28T11:57:31.056Z,6.50
2018-03-28T11:58:31.081Z,6.45
2018-03-28T11:59:31.094Z,6.57
2018-03-28T12:00:31.118Z,6.65
2018-03-28T12:01:31.136Z,6.73
2018-03-28T12:02:31.156Z,6.78
2018-03-28T12:03:31.175Z,6.82
2018-03-28T12:04:31.191Z,6.97
2018-03-28T12:05:31.220Z,6.99
2018-03-28T12:06:31.229Z,7.00
2018-03-28T12:07:31.252Z,7.05
2018-03-28T12:08:31.271Z,7.04
2018-03-28T12:09:31.298Z,7.00
2018-03-28T12:10:31.305Z,7.16
2018-03-28T12:11:31.333Z,7.12
2018-03-28T12:12:31.349Z,7.24
2018-03-28T12:13:31.370Z,7.21
2018-03-28T12:14:31.395Z,7.16
2018-03-28T12:15:31.412Z,7.15
2018-03-28T12:16:31.429Z,7.15
2018-03-28T12:17:31.448Z,7.00
2018-03-28T12:18:31.469Z,7.01
2018-03-28T12:19:31.499Z,7.00
2018-03-28T12:20:31.513Z,6.94
2018-03-28T12:21:31.522Z,6.99
2018-03-28T12:22:31.543Z,6.89
2018-03-28T12:23:31.574Z,6.86
2018-03-28T12:24:31.587Z,6.81
2018-03-28T12:25:31.607Z,6.79
2018-03-28T12:26:31.623Z,6.83
2018-03-28T12:27:31.647Z,6.71
2018-03-28T12:28:31.668Z,6.71
2018-03-28T12:29:31.685Z,6.79
2018-03-28T12:30:31.720Z,6.79
2018-03-28T12:31:31.725Z,6.81
2018-03-28T12:32:31.743Z,6.79
2018-03-28T12:33:31.764Z,6.83
2018-03-28T12:34:31.781Z,6.78
2018-03-28T12:35:31.800Z,6.53
2018-03-28T12:36:31.823Z,6.54
2018-03-28T12:37:31.840Z,6.46
2018-03-28T12:38:31.859Z,6.35
2018-03-28T12:39:31.881Z,6.53
2018-03-28T12:40:31.898Z,6.48
2018-03-28T12:41:31.920Z,6.51
2018-03-28T12:42:31.941Z,6.61
2018-03-28T12:43:31.952Z,6.73
2018-03-28T12:44:31.974Z,6.57
2018-03-28T12:45:32.025Z,6.72
2018-03-28T12:46:32.020Z,6.78
2018-03-28T12:47:32.040Z,6.69
2018-03-28T12:48:32.058Z,6.68
2018-03-28T12:49:32.075Z,6.81
2018-03-28T12:50:32.086Z,6.68
2018-03-28T12:51:32.116Z,6.69
2018-03-28T12:52:32.135Z,6.75
2018-03-28T12:53:32.220Z,6.83
2018-03-28T12:54:32.211Z,6.86
2018-03-28T12:55:32.317Z,6.78
2018-03-28T12:56:32.211Z,6.91
2018-03-28T12:57:32.226Z,6.71
2018-03-28T12:58:32.250Z,6.72
2018-03-28T12:59:32.269Z,6.75
2018-03-28T13:00:32.285Z,6.58
2018-03-28T13:01:32.300Z,6.63
2018-03-28T13:02:32.329Z,6.53
2018-03-28T13:03:32.344Z,6.54
2018-03-28T13:04:32.361Z,6.42
2018-03-28T13:05:32.384Z,6.45
2018-03-28T13:06:32.410Z,6.45
2018-03-28T13:07:32.421Z,6.46
2018-03-28T13:08:32.439Z,6.54
2018-03-28T13:09:32.463Z,6.46
2018-03-28T13:10:32.480Z,6.55
2018-03-28T13:11:32.498Z,6.54
2018-03-28T13:12:32.520Z,6.51
2018-03-28T13:13:32.534Z,6.60
2018-03-28T13:14:32.556Z,6.51
2018-03-28T13:15:32.573Z,6.46
2018-03-28T13:16:32.590Z,6.64
2018-03-28T13:17:32.611Z,6.53
2018-03-28T13:18:32.629Z,6.60